createdAt,value
2023-03-12T00:01:33.405Z,98523.05
2023-03-12T00:04:03.032Z,98520.84
2023-03-12T00:06:29.677Z,98520.56
2023-03-12T00:08:56.462Z,98522.42
2023-03-12T00:11:23.245Z,98522.35
2023-03-12T00:13:52.980Z,98519.58
2023-03-12T00:16:19.575Z,98518.31
2023-03-12T00:18:47.639Z,98517.86
2023-03-12T00:21:14.234Z,98515.79
2023-03-12T00:23:40.814Z,98515.41
2023-03-12T00:26:08.239Z,98515.15
2023-03-12T00:28:35.147Z,98513.65
2023-03-12T00:31:02.308Z,98516.61
2023-03-12T00:33:29.312Z,98519.08
2023-03-12T00:35:56.104Z,98515.45
2023-03-12T00:38:22.648Z,98517.67
2023-03-12T00:40:49.245Z,98515.20
2023-03-12T00:43:15.838Z,98515.88
2023-03-12T00:45:42.403Z,98516.43
2023-03-12T00:48:08.997Z,98515.47
2023-03-12T00:50:35.601Z,98513.35
2023-03-12T00:53:02.171Z,98513.15
2023-03-12T00:55:29.294Z,98512.30
2023-03-12T00:57:55.849Z,98510.11
2023-03-12T01:00:22.480Z,98511.24
2023-03-12T01:02:48.995Z,98510.89
2023-03-12T01:05:16.044Z,98511.83
2023-03-12T01:07:42.763Z,98511.22
2023-03-12T01:10:11.289Z,98510.19
2023-03-12T01:12:37.938Z,98512.83
2023-03-12T01:15:04.656Z,98512.02
2023-03-12T01:17:31.242Z,98508.43
2023-03-12T01:19:58.604Z,98507.36
2023-03-12T01:22:25.393Z,98506.83
2023-03-12T01:24:51.976Z,98506.73
2023-03-12T01:27:18.551Z,98502.33
2023-03-12T01:29:45.073Z,98506.35
2023-03-12T01:32:11.634Z,98505.23
2023-03-12T01:34:38.237Z,98506.04
2023-03-12T01:37:04.820Z,98501.33
2023-03-12T01:39:31.480Z,98501.00
2023-03-12T01:41:58.138Z,98500.65
2023-03-12T01:44:24.742Z,98497.05
2023-03-12T01:46:51.670Z,98496.09
2023-03-12T01:49:25.973Z,98489.08
2023-03-12T01:51:55.535Z,98492.73
2023-03-12T01:54:39.916Z,98493.02
2023-03-12T01:57:08.680Z,98493.98
2023-03-12T01:59:45.898Z,98492.88
2023-03-12T02:02:13.864Z,98497.77
2023-03-12T02:04:40.526Z,98494.11
2023-03-12T02:07:25.366Z,98495.50
2023-03-12T02:09:52.243Z,98499.60
2023-03-12T02:12:18.758Z,98502.48
2023-03-12T02:14:45.333Z,98502.20
2023-03-12T02:17:11.967Z,98504.68
2023-03-12T02:19:43.857Z,98506.27
2023-03-12T02:22:10.526Z,98505.52
2023-03-12T02:24:39.406Z,98505.77
2023-03-12T02:27:06.503Z,98504.89
2023-03-12T02:29:33.157Z,98502.96
2023-03-12T02:32:00.563Z,98503.72
2023-03-12T02:34:27.209Z,98506.29
2023-03-12T02:36:53.779Z,98509.26
2023-03-12T02:39:20.661Z,98509.41
2023-03-12T02:42:05.814Z,98508.56
2023-03-12T02:44:33.508Z,98509.27
2023-03-12T02:47:00.917Z,98508.80
2023-03-12T02:49:28.627Z,98509.42
2023-03-12T02:51:55.262Z,98512.88
2023-03-12T02:54:21.990Z,98519.74
2023-03-12T02:56:48.917Z,98521.39
2023-03-12T02:59:15.757Z,98530.23
2023-03-12T03:01:43.333Z,98530.56
2023-03-12T03:04:10.766Z,98530.92
2023-03-12T03:06:38.044Z,98526.14
2023-03-12T03:09:05.421Z,98533.16
2023-03-12T03:11:31.968Z,98539.05
2023-03-12T03:13:59.606Z,98542.95
2023-03-12T03:16:26.198Z,98546.56
2023-03-12T03:18:53.691Z,98545.39
2023-03-12T03:21:20.496Z,98552.27
2023-03-12T03:23:47.509Z,98558.46
2023-03-12T03:26:15.755Z,98562.27
2023-03-12T03:31:08.091Z,98567.21
2023-03-12T03:33:36.639Z,98570.34
2023-03-12T03:36:03.813Z,98577.21
2023-03-12T03:38:32.269Z,98575.16
2023-03-12T03:40:59.056Z,98578.61
2023-03-12T03:43:25.792Z,98572.90
2023-03-12T03:45:59.088Z,98563.39
2023-03-12T03:48:25.691Z,98560.48
2023-03-12T03:50:52.302Z,98558.00
2023-03-12T03:53:22.036Z,98560.52
2023-03-12T03:55:48.974Z,98570.34
2023-03-12T03:58:15.662Z,98565.55
2023-03-12T04:00:44.573Z,98564.92
2023-03-12T04:03:11.341Z,98567.34
2023-03-12T04:05:38.292Z,98561.64
2023-03-12T04:08:05.596Z,98567.02
2023-03-12T04:10:32.432Z,98569.62
2023-03-12T04:12:58.990Z,98566.60
2023-03-12T04:15:25.548Z,98564.38
2023-03-12T04:17:53.402Z,98562.66
2023-03-12T04:20:21.289Z,98562.88
2023-03-12T04:22:47.889Z,98563.86
2023-03-12T04:25:16.157Z,98564.34
2023-03-12T04:27:42.788Z,98565.46
2023-03-12T04:30:10.111Z,98563.61
2023-03-12T04:32:37.532Z,98575.54
2023-03-12T04:35:04.281Z,98573.75
2023-03-12T04:37:32.519Z,98573.38
2023-03-12T04:39:59.666Z,98572.76
2023-03-12T04:42:26.283Z,98572.38
2023-03-12T04:44:53.078Z,98573.02
2023-03-12T04:47:19.895Z,98573.06
2023-03-12T04:49:46.545Z,98576.30
2023-03-12T04:52:13.673Z,98577.63
2023-03-12T04:54:40.544Z,98579.14
2023-03-12T04:57:07.139Z,98584.95
2023-03-12T04:59:33.859Z,98587.27
2023-03-12T05:02:00.629Z,98588.17
2023-03-12T05:04:28.556Z,98588.20
2023-03-12T05:06:55.235Z,98597.19
2023-03-12T05:09:21.813Z,98598.90
2023-03-12T05:11:48.478Z,98600.48
2023-03-12T05:14:16.930Z,98599.80
2023-03-12T05:16:44.227Z,98598.45
2023-03-12T05:19:10.812Z,98600.44
2023-03-12T05:21:37.426Z,98597.92
2023-03-12T05:24:04.172Z,98601.28
2023-03-12T05:26:31.695Z,98596.27
2023-03-12T05:29:06.064Z,98596.00
2023-03-12T05:31:35.327Z,98603.47
2023-03-12T05:34:03.361Z,98618.77
2023-03-12T05:36:30.633Z,98628.07
2023-03-12T05:38:57.402Z,98632.00
2023-03-12T05:41:25.679Z,98631.12
2023-03-12T05:43:54.192Z,98637.90
2023-03-12T05:46:21.086Z,98641.81
2023-03-12T05:48:48.114Z,98641.92
2023-03-12T05:51:15.232Z,98646.58
2023-03-12T05:53:41.852Z,98652.71
2023-03-12T05:56:09.159Z,98653.02
2023-03-12T05:58:35.903Z,98655.33
2023-03-12T06:01:03.617Z,98662.94
2023-03-12T06:03:30.372Z,98668.77
2023-03-12T06:05:57.252Z,98672.04
2023-03-12T06:08:24.043Z,98678.67
2023-03-12T06:10:52.279Z,98684.46
2023-03-12T06:13:19.239Z,98685.80
2023-03-12T06:15:46.219Z,98688.69
2023-03-12T06:18:12.815Z,98693.91
2023-03-12T06:20:39.434Z,98703.20
2023-03-12T06:23:06.099Z,98706.20
2023-03-12T06:25:33.332Z,98704.66
2023-03-12T06:27:59.963Z,98706.34
2023-03-12T06:30:27.728Z,98706.70
2023-03-12T06:32:54.605Z,98705.27
2023-03-12T06:35:21.273Z,98706.73
2023-03-12T06:37:47.865Z,98702.15
2023-03-12T06:40:14.446Z,98700.41
2023-03-12T06:42:41.071Z,98704.34
2023-03-12T06:45:08.147Z,98709.27
2023-03-12T06:47:34.665Z,98709.19
2023-03-12T06:50:01.276Z,98714.77
2023-03-12T06:52:27.827Z,98711.21
2023-03-12T06:54:54.369Z,98713.08
2023-03-12T06:57:21.536Z,98713.59
2023-03-12T06:59:50.426Z,98708.38
2023-03-12T07:02:17.936Z,98709.53
2023-03-12T07:04:44.664Z,98721.63
2023-03-12T07:07:12.104Z,98731.74
2023-03-12T07:09:38.692Z,98738.34
2023-03-12T07:12:05.389Z,98740.58
2023-03-12T07:14:32.033Z,98742.20
2023-03-12T07:16:59.130Z,98741.48
2023-03-12T07:19:25.688Z,98751.75
2023-03-12T07:21:52.235Z,98752.38
2023-03-12T07:24:18.763Z,98753.83
2023-03-12T07:26:46.140Z,98754.23
2023-03-12T07:29:13.185Z,98758.71
2023-03-12T07:31:39.737Z,98759.25
2023-03-12T07:34:06.752Z,98760.07
2023-03-12T07:36:33.808Z,98761.33
2023-03-12T07:39:00.529Z,98753.30
2023-03-12T07:41:27.072Z,98754.00
2023-03-12T07:43:53.762Z,98753.77
2023-03-12T07:46:20.403Z,98759.02
2023-03-12T07:48:47.385Z,98759.52
2023-03-12T07:51:14.219Z,98769.85
2023-03-12T07:53:40.773Z,98769.52
2023-03-12T07:56:07.605Z,98766.80
2023-03-12T07:58:36.549Z,98773.08
2023-03-12T08:01:03.393Z,98780.05
2023-03-12T08:03:30.787Z,98785.46
2023-03-12T08:06:01.516Z,98781.41
2023-03-12T08:08:28.272Z,98777.02
2023-03-12T08:10:55.084Z,98785.48
2023-03-12T08:13:23.835Z,98787.68
2023-03-12T08:15:51.599Z,98789.36
2023-03-12T08:18:18.706Z,98790.80
2023-03-12T08:20:45.409Z,98792.30
2023-03-12T08:23:12.003Z,98791.95
2023-03-12T08:25:38.559Z,98789.71
2023-03-12T08:28:05.292Z,98791.00
2023-03-12T08:30:31.871Z,98802.30
2023-03-12T08:32:58.685Z,98801.38
2023-03-12T08:35:25.885Z,98801.67
2023-03-12T08:37:59.332Z,98801.31
2023-03-12T08:40:25.860Z,98804.41
2023-03-12T08:42:52.546Z,98806.36
2023-03-12T08:45:19.133Z,98809.24
2023-03-12T08:47:45.807Z,98815.10
2023-03-12T08:50:12.932Z,98807.45
2023-03-12T08:52:39.592Z,98809.92
2023-03-12T08:55:06.572Z,98804.27
2023-03-12T08:57:33.115Z,98801.45
2023-03-12T08:59:59.655Z,98806.73
2023-03-12T09:02:26.320Z,98812.48
2023-03-12T09:04:52.996Z,98818.29
2023-03-12T09:07:19.536Z,98817.84
2023-03-12T09:09:46.093Z,98816.14
2023-03-12T09:12:13.115Z,98822.27
2023-03-12T09:15:02.371Z,98820.25
2023-03-12T09:17:26.449Z,98825.95
2023-03-12T09:19:53.117Z,98828.08
2023-03-12T09:22:19.670Z,98824.31
2023-03-12T09:24:46.215Z,98826.79
2023-03-12T09:27:12.805Z,98831.16
2023-03-12T09:29:49.679Z,98827.67
2023-03-12T09:32:23.748Z,98827.63
2023-03-12T09:34:50.333Z,98820.02
2023-03-12T09:37:16.851Z,98827.73
2023-03-12T09:39:43.995Z,98822.10
2023-03-12T09:42:14.749Z,98832.84
2023-03-12T09:44:42.649Z,98840.17
2023-03-12T09:47:10.431Z,98840.27
2023-03-12T09:49:43.081Z,98834.70
2023-03-12T09:52:20.837Z,98829.94
2023-03-12T09:55:07.648Z,98833.73
2023-03-12T09:57:34.325Z,98833.80
2023-03-12T10:00:00.923Z,98838.84
2023-03-12T10:02:46.237Z,98844.65
2023-03-12T10:05:17.766Z,98849.17
2023-03-12T10:08:23.356Z,98851.97
2023-03-12T10:11:02.942Z,98857.55
2023-03-12T10:13:36.234Z,98855.80
2023-03-12T10:16:14.561Z,98861.01
2023-03-12T10:18:48.551Z,98865.11
2023-03-12T10:21:34.828Z,98862.27
2023-03-12T10:24:25.194Z,98863.90
2023-03-12T10:26:53.643Z,98867.16
2023-03-12T10:29:23.373Z,98860.27
2023-03-12T10:32:08.684Z,98856.55
2023-03-12T10:34:40.385Z,98855.38
2023-03-12T10:37:18.042Z,98855.75
2023-03-12T10:39:44.906Z,98850.33
2023-03-12T10:42:16.012Z,98852.67
2023-03-12T10:44:42.616Z,98856.41
2023-03-12T10:47:31.175Z,98855.68
2023-03-12T10:50:20.848Z,98856.77
2023-03-12T10:52:48.026Z,98859.77
2023-03-12T10:55:24.969Z,98859.88
2023-03-12T10:57:51.665Z,98865.30
2023-03-12T11:00:27.879Z,98866.77
2023-03-12T11:03:00.823Z,98866.55
2023-03-12T11:05:30.136Z,98865.81
2023-03-12T11:07:57.115Z,98864.35
2023-03-12T11:10:27.522Z,98860.63
2023-03-12T11:13:04.460Z,98859.89
2023-03-12T11:15:40.789Z,98865.81
2023-03-12T11:18:27.075Z,98863.09
2023-03-12T11:20:56.461Z,98868.38
2023-03-12T11:23:25.214Z,98869.18
2023-03-12T11:25:53.238Z,98863.58
2023-03-12T11:28:21.403Z,98866.17
2023-03-12T11:30:48.201Z,98865.88
2023-03-12T11:33:14.845Z,98863.60
2023-03-12T11:35:50.469Z,98860.48
2023-03-12T11:38:17.072Z,98870.98
2023-03-12T11:41:06.947Z,98868.73
2023-03-12T11:43:54.193Z,98874.24
2023-03-12T11:46:23.314Z,98870.89
2023-03-12T11:48:57.171Z,98865.34
2023-03-12T11:51:39.029Z,98871.50
2023-03-12T11:54:14.451Z,98874.70
2023-03-12T11:56:44.014Z,98874.35
2023-03-12T11:59:14.467Z,98874.50
2023-03-12T12:01:41.013Z,98875.65
2023-03-12T12:04:26.659Z,98871.16
2023-03-12T12:06:57.102Z,98871.30
2023-03-12T12:09:42.334Z,98871.61
2023-03-12T12:12:08.943Z,98873.02
2023-03-12T12:14:41.326Z,98871.51
2023-03-12T12:17:11.370Z,98872.67
2023-03-12T12:19:43.801Z,98883.05
2023-03-12T12:22:31.023Z,98879.88
2023-03-12T12:25:05.185Z,98875.15
2023-03-12T12:27:55.280Z,98879.02
2023-03-12T12:30:21.809Z,98886.95
2023-03-12T12:32:51.215Z,98885.98
2023-03-12T12:35:17.777Z,98888.75
2023-03-12T12:37:50.170Z,98885.89
2023-03-12T12:40:25.299Z,98891.56
2023-03-12T12:42:53.550Z,98890.11
2023-03-12T12:45:20.132Z,98887.33
2023-03-12T12:47:47.809Z,98894.92
2023-03-12T12:50:16.228Z,98892.06
2023-03-12T12:52:42.771Z,98893.07
2023-03-12T12:55:17.195Z,98892.84
2023-03-12T12:58:13.437Z,98903.71
2023-03-12T13:00:44.290Z,98905.48
2023-03-12T13:03:15.484Z,98907.09
2023-03-12T13:05:46.670Z,98903.50
2023-03-12T13:08:31.925Z,98899.67
2023-03-12T13:11:16.193Z,98897.34
2023-03-12T13:14:04.696Z,98895.60
2023-03-12T13:16:42.554Z,98889.52
2023-03-12T13:19:11.913Z,98892.52
2023-03-12T13:21:41.722Z,98893.37
2023-03-12T13:24:29.851Z,98894.20
2023-03-12T13:26:59.098Z,98892.53
2023-03-12T13:29:28.264Z,98893.08
2023-03-12T13:31:54.944Z,98892.27
2023-03-12T13:34:21.523Z,98890.99
2023-03-12T13:36:49.839Z,98899.04
2023-03-12T13:39:16.360Z,98899.80
2023-03-12T13:41:45.694Z,98903.56
2023-03-12T13:44:24.186Z,98909.37
2023-03-12T13:47:03.671Z,98913.39
2023-03-12T13:49:39.711Z,98917.81
2023-03-12T13:52:24.781Z,98919.54
2023-03-12T13:55:01.427Z,98922.13
2023-03-12T13:57:30.478Z,98927.55
2023-03-12T13:59:57.178Z,98929.52
2023-03-12T14:02:28.014Z,98935.58
2023-03-12T14:04:55.800Z,98942.59
2023-03-12T14:07:46.821Z,98939.75
2023-03-12T14:10:22.012Z,98941.16
2023-03-12T14:12:54.754Z,98939.95
2023-03-12T14:15:22.581Z,98938.39
2023-03-12T14:17:54.259Z,98938.17
2023-03-12T14:20:21.573Z,98938.33
2023-03-12T14:22:52.680Z,98937.34
2023-03-12T14:25:25.218Z,98943.91
2023-03-12T14:27:51.721Z,98946.36
2023-03-12T14:30:20.551Z,98949.75
2023-03-12T14:32:48.190Z,98952.92
2023-03-12T14:35:14.869Z,98955.91
2023-03-12T14:37:44.969Z,98959.67
2023-03-12T14:40:46.908Z,98956.93
2023-03-12T14:43:32.541Z,98956.52
2023-03-12T14:46:05.623Z,98954.05
2023-03-12T14:48:33.153Z,98946.43
2023-03-12T14:51:00.263Z,98952.55
2023-03-12T14:53:31.088Z,98956.22
2023-03-12T14:56:16.854Z,98953.55
2023-03-12T14:58:47.318Z,98954.37
2023-03-12T15:01:14.930Z,98948.96
2023-03-12T15:03:45.707Z,98949.24
2023-03-12T15:06:18.768Z,98944.22
2023-03-12T15:08:45.930Z,98946.23
2023-03-12T15:11:12.461Z,98949.42
2023-03-12T15:13:39.038Z,98947.56
2023-03-12T15:16:05.902Z,98946.61
2023-03-12T15:18:33.070Z,98946.06
2023-03-12T15:21:00.907Z,98938.38
2023-03-12T15:23:28.296Z,98939.36
2023-03-12T15:26:13.913Z,98943.83
2023-03-12T15:28:40.736Z,98945.52
2023-03-12T15:31:15.081Z,98942.58
2023-03-12T15:33:42.442Z,98945.66
2023-03-12T15:36:15.116Z,98951.96
2023-03-12T15:38:47.678Z,98953.77
2023-03-12T15:41:25.847Z,98958.64
2023-03-12T15:43:53.379Z,98958.13
2023-03-12T15:46:20.107Z,98957.80
2023-03-12T15:48:51.042Z,98959.15
2023-03-12T15:51:28.675Z,98957.84
2023-03-12T15:54:21.834Z,98949.42
2023-03-12T15:56:48.393Z,98949.98
2023-03-12T15:59:18.119Z,98951.70
2023-03-12T16:01:45.690Z,98947.84
2023-03-12T16:04:12.299Z,98948.81
2023-03-12T16:06:38.999Z,98953.36
2023-03-12T16:09:06.225Z,98952.86
2023-03-12T16:11:33.360Z,98948.30
2023-03-12T16:14:04.061Z,98952.16
2023-03-12T16:16:30.944Z,98951.75
2023-03-12T16:18:57.709Z,98951.23
2023-03-12T16:21:24.315Z,98948.70
2023-03-12T16:23:50.900Z,98942.83
2023-03-12T16:26:17.456Z,98943.59
2023-03-12T16:28:44.844Z,98954.12
2023-03-12T16:31:12.340Z,98961.81
2023-03-12T16:33:38.873Z,98969.67
2023-03-12T16:36:10.712Z,98977.81
2023-03-12T16:38:37.292Z,98980.58
2023-03-12T16:41:03.926Z,98977.42
2023-03-12T16:43:30.586Z,98981.56
2023-03-12T16:45:57.966Z,98981.20
2023-03-12T16:48:24.819Z,98979.56
2023-03-12T16:50:52.129Z,98982.55
2023-03-12T16:53:18.830Z,98978.27
2023-03-12T16:55:46.573Z,98983.45
2023-03-12T16:58:13.368Z,98980.46
2023-03-12T17:00:40.657Z,98976.95
2023-03-12T17:03:07.331Z,98975.59
2023-03-12T17:05:33.866Z,98975.92
2023-03-12T17:08:00.435Z,98980.20
2023-03-12T17:10:26.994Z,98974.02
2023-03-12T17:12:53.673Z,98971.12
2023-03-12T17:15:21.257Z,98970.75
2023-03-12T17:17:48.255Z,98972.39
2023-03-12T17:20:17.167Z,98974.70
2023-03-12T17:22:43.729Z,98972.27
2023-03-12T17:25:23.939Z,98976.36
2023-03-12T17:27:50.734Z,98977.63
2023-03-12T17:30:17.772Z,98979.15
2023-03-12T17:32:44.621Z,98979.27
2023-03-12T17:35:36.860Z,98973.94
2023-03-12T17:38:03.732Z,98966.16
2023-03-12T17:40:30.300Z,98963.23
2023-03-12T17:42:59.867Z,98963.29
2023-03-12T17:45:26.872Z,98963.67
2023-03-12T17:47:53.410Z,98963.27
2023-03-12T17:50:20.026Z,98965.96
2023-03-12T17:52:46.632Z,98970.86
2023-03-12T17:55:14.764Z,98975.95
2023-03-12T17:57:42.696Z,98976.94
2023-03-12T18:00:13.116Z,98978.11
2023-03-12T18:06:14.906Z,98989.02
2023-03-12T18:08:41.930Z,98995.16
2023-03-12T18:11:08.597Z,98997.52
2023-03-12T18:13:35.245Z,98996.09
2023-03-12T18:16:04.906Z,99000.69
2023-03-12T18:31:24.807Z,98984.83
2023-03-12T18:33:51.339Z,98984.05
2023-03-12T18:36:18.023Z,98984.35
2023-03-12T18:38:44.746Z,98987.26
2023-03-12T18:41:12.390Z,98988.42
2023-03-12T18:43:39.405Z,98985.48
2023-03-12T18:46:06.390Z,98988.44
2023-03-12T18:48:32.945Z,98988.36
2023-03-12T18:50:59.745Z,98982.56
2023-03-12T18:53:26.330Z,98981.83
2023-03-12T18:55:53.866Z,98983.92
2023-03-12T18:58:20.425Z,98978.00
2023-03-12T19:00:47.020Z,98974.05
2023-03-12T19:03:13.569Z,98967.52
2023-03-12T19:05:40.544Z,98962.11
2023-03-12T19:08:07.442Z,98964.00
2023-03-12T19:10:34.016Z,98963.31
2023-03-12T19:13:01.469Z,98960.00
2023-03-12T19:15:28.770Z,98964.30
2023-03-12T19:17:55.305Z,98966.88
2023-03-12T19:20:21.908Z,98969.20
2023-03-12T19:22:48.607Z,98972.60
2023-03-12T19:25:15.966Z,98968.61
2023-03-12T19:27:42.538Z,98968.18
2023-03-12T19:30:09.363Z,98967.06
2023-03-12T19:32:43.306Z,98962.83
2023-03-12T19:35:11.139Z,98955.40
2023-03-12T19:37:37.758Z,98956.21
2023-03-12T19:40:05.968Z,98956.51
2023-03-12T19:42:32.573Z,98952.67
2023-03-12T19:44:59.281Z,98945.23
2023-03-12T19:47:26.822Z,98943.35
2023-03-12T19:49:53.467Z,98941.95
2023-03-12T19:52:20.218Z,98941.05
2023-03-12T19:54:54.717Z,98937.45
2023-03-12T19:57:29.860Z,98935.45
2023-03-12T19:59:56.415Z,98930.85
2023-03-12T20:02:23.253Z,98934.64
2023-03-12T20:04:49.948Z,98934.97
2023-03-12T20:07:18.446Z,98942.77
2023-03-12T20:10:11.207Z,98948.52
2023-03-12T20:12:38.230Z,98949.48
2023-03-12T20:15:05.157Z,98945.64
2023-03-12T20:17:31.932Z,98938.36
2023-03-12T20:19:58.546Z,98937.41
2023-03-12T20:22:28.091Z,98934.16
2023-03-12T20:24:54.632Z,98931.17
2023-03-12T20:27:21.352Z,98934.36
2023-03-12T20:29:49.978Z,98933.14
2023-03-12T20:32:17.282Z,98933.64
2023-03-12T20:34:43.856Z,98935.98
2023-03-12T20:37:10.516Z,98937.45
2023-03-12T20:39:37.114Z,98933.41
2023-03-12T20:42:03.746Z,98930.06
2023-03-12T20:44:32.515Z,98933.99
2023-03-12T20:46:59.084Z,98928.79
2023-03-12T20:49:25.615Z,98926.69
2023-03-12T20:51:52.140Z,98921.07
2023-03-12T20:54:18.678Z,98910.48
2023-03-12T20:56:45.310Z,98897.98
2023-03-12T20:59:12.052Z,98893.83
2023-03-12T21:01:38.656Z,98886.92
2023-03-12T21:04:05.445Z,98885.16
2023-03-12T21:06:32.037Z,98880.46
2023-03-12T21:08:58.604Z,98875.67
2023-03-12T21:11:26.816Z,98876.66
2023-03-12T21:13:53.760Z,98883.48
2023-03-12T21:16:20.451Z,98880.90
2023-03-12T21:18:49.799Z,98884.92
2023-03-12T21:21:16.597Z,98882.92
2023-03-12T21:23:43.371Z,98884.29
2023-03-12T21:26:10.812Z,98881.59
2023-03-12T21:28:37.474Z,98883.69
2023-03-12T21:31:05.069Z,98884.42
2023-03-12T21:33:31.726Z,98879.36
2023-03-12T21:35:58.279Z,98882.08
2023-03-12T21:38:24.883Z,98879.20
2023-03-12T21:40:54.239Z,98879.41
2023-03-12T21:43:20.788Z,98872.70
2023-03-12T21:45:47.438Z,98871.88
2023-03-12T21:48:14.901Z,98864.41
2023-03-12T21:50:41.423Z,98869.59
2023-03-12T21:53:22.978Z,98870.00
2023-03-12T21:55:59.441Z,98865.44
2023-03-12T21:58:26.136Z,98860.61
2023-03-12T22:00:52.685Z,98852.89
2023-03-12T22:03:22.734Z,98853.70
2023-03-12T22:05:53.080Z,98856.90
2023-03-12T22:08:19.742Z,98855.86
2023-03-12T22:10:46.348Z,98853.13
2023-03-12T22:13:12.924Z,98860.81
2023-03-12T22:15:39.764Z,98864.57
2023-03-12T22:18:07.388Z,98868.73
2023-03-12T22:21:05.069Z,98870.80
2023-03-12T22:23:31.709Z,98870.20
2023-03-12T22:26:02.024Z,98869.02
2023-03-12T22:28:28.581Z,98865.08
2023-03-12T22:31:01.782Z,98855.14
2023-03-12T22:33:28.450Z,98844.25
2023-03-12T22:35:55.164Z,98844.54
2023-03-12T22:38:22.336Z,98846.67
2023-03-12T22:40:49.014Z,98843.98
2023-03-12T22:43:15.622Z,98842.22
2023-03-12T22:45:42.293Z,98845.58
2023-03-12T22:48:08.907Z,98845.10
2023-03-12T22:50:35.462Z,98841.79
2023-03-12T22:53:04.271Z,98841.02
2023-03-12T22:55:30.886Z,98839.57
2023-03-12T22:57:57.517Z,98839.85
2023-03-12T23:00:24.226Z,98841.14
2023-03-12T23:02:50.887Z,98836.34
2023-03-12T23:05:17.727Z,98832.96
2023-03-12T23:07:44.447Z,98829.33
2023-03-12T23:10:11.185Z,98825.89
2023-03-12T23:12:37.880Z,98818.36
2023-03-12T23:15:04.660Z,98821.13
2023-03-12T23:17:31.246Z,98826.91
2023-03-12T23:19:57.790Z,98823.98
2023-03-12T23:22:24.629Z,98826.25
2023-03-12T23:24:51.256Z,98815.40
2023-03-12T23:27:17.875Z,98812.52
2023-03-12T23:29:44.428Z,98814.54
2023-03-12T23:32:10.986Z,98814.06
2023-03-12T23:34:37.540Z,98810.23
2023-03-12T23:37:04.523Z,98806.17
2023-03-12T23:39:32.703Z,98806.58
2023-03-12T23:41:59.583Z,98805.30
2023-03-12T23:44:26.180Z,98800.67
2023-03-12T23:46:52.786Z,98799.67
2023-03-12T23:49:19.408Z,98793.10
2023-03-12T23:51:46.747Z,98784.85
2023-03-12T23:54:13.377Z,98786.27
2023-03-12T23:56:42.756Z,98784.74
2023-03-12T23:59:09.442Z,98783.04
